Time;durP1;ratioP1;P1;durP2;ratioP2;P2;SDS_P1;SDS_P2;PMS_P1;PMS_P2;Temp;Humidity;BMP_temperature;BMP_pressure;BME280_temperature;BME280_humidity;BME280_pressure;Samples;Min_cycle;Max_cycle;Signal;HPM_P1;HPM_P2
2022/09/18 00:01:35;;;;;;;10.20;2.20;;;14.10;74.40;;;;;;5117711;28;20035;-66
2022/09/18 00:04:04;;;;;;;8.13;1.88;;;14.10;74.40;;;;;;5133185;27;20356;-66
2022/09/18 00:06:33;;;;;;;10.48;2.30;;;14.10;74.50;;;;;;5116678;28;20363;-66
2022/09/18 00:09:00;;;;;;;8.82;1.77;;;14.20;74.60;;;;;;5118261;28;20088;-66
2022/09/18 00:11:32;;;;;;;9.38;1.77;;;14.10;74.50;;;;;;5118216;28;20027;-66
2022/09/18 00:13:57;;;;;;;6.32;2.05;;;14.20;74.60;;;;;;5117138;28;20040;-66
2022/09/18 00:16:24;;;;;;;7.10;1.83;;;14.10;74.60;;;;;;5116619;28;20030;-66
2022/09/18 00:18:50;;;;;;;7.55;1.60;;;14.20;74.70;;;;;;5133786;27;20038;-66
2022/09/18 00:21:19;;;;;;;6.53;1.80;;;14.10;74.70;;;;;;5123950;27;20448;-66
2022/09/18 00:23:45;;;;;;;10.38;2.10;;;14.20;74.80;;;;;;5098822;28;20101;-66
2022/09/18 00:26:13;;;;;;;7.10;1.50;;;14.20;74.80;;;;;;5115854;28;20024;-66
2022/09/18 00:28:39;;;;;;;9.65;1.80;;;14.20;74.90;;;;;;5117904;28;20035;-66
2022/09/18 00:31:19;;;;;;;5.22;1.70;;;14.20;74.90;;;;;;5133890;27;20076;-68
2022/09/18 00:33:45;;;;;;;10.77;2.03;;;14.20;74.90;;;;;;5114870;27;20028;-66
2022/09/18 00:36:14;;;;;;;11.77;1.65;;;14.10;74.90;;;;;;5116872;28;20019;-66
2022/09/18 00:38:40;;;;;;;5.00;1.42;;;14.10;75.00;;;;;;5117906;28;20107;-66
2022/09/18 00:41:11;;;;;;;8.20;2.00;;;14.10;75.00;;;;;;5117596;28;20027;-66
2022/09/18 00:43:37;;;;;;;8.00;1.70;;;14.20;75.20;;;;;;5128717;27;20054;-66
2022/09/18 00:46:17;;;;;;;5.93;2.03;;;14.20;75.10;;;;;;5107299;28;20423;-66
2022/09/18 00:49:14;;;;;;;4.63;1.30;;;14.20;75.20;;;;;;5115706;28;20032;-66
2022/09/18 00:51:42;;;;;;;5.63;1.50;;;14.20;75.20;;;;;;5134262;27;20036;-66
2022/09/18 00:54:18;;;;;;;9.45;1.70;;;14.20;75.20;;;;;;5132583;27;20023;-66
2022/09/18 00:56:44;;;;;;;6.43;1.52;;;14.20;75.30;;;;;;5117706;28;20023;-66
2022/09/18 00:59:14;;;;;;;7.88;2.15;;;14.20;75.40;;;;;;5115693;28;20390;-66
2022/09/18 01:01:39;;;;;;;6.30;1.63;;;14.20;75.50;;;;;;5117369;28;20059;-66
2022/09/18 01:04:10;;;;;;;8.85;1.80;;;14.20;75.40;;;;;;5114272;28;20051;-66
2022/09/18 01:06:45;;;;;;;12.73;2.22;;;14.20;75.50;;;;;;5116164;27;20034;-66
2022/09/18 01:10:03;;;;;;;7.93;1.83;;;14.20;75.60;;;;;;5114883;28;20023;-64
2022/09/18 01:12:49;;;;;;;6.80;1.73;;;14.20;75.60;;;;;;5071478;28;20048;-65
2022/09/18 01:15:40;;;;;;;8.13;1.70;;;14.20;75.60;;;;;;5057931;28;20109;-65
2022/09/18 01:18:24;;;;;;;4.63;1.40;;;14.20;76.30;;;;;;5073987;28;20397;-65
2022/09/18 01:21:08;;;;;;;6.35;1.52;;;14.20;75.70;;;;;;5074303;28;20052;-65
2022/09/18 01:24:05;;;;;;;7.13;1.55;;;14.20;75.80;;;;;;5073911;28;20028;-65
2022/09/18 01:27:02;;;;;;;5.72;1.55;;;14.20;75.80;;;;;;5073154;28;20037;-65
2022/09/18 01:29:41;;;;;;;7.38;1.80;;;14.20;75.80;;;;;;5074260;28;20173;-65
2022/09/18 01:32:20;;;;;;;5.45;1.60;;;14.30;75.90;;;;;;5056632;28;20521;-66
2022/09/18 01:34:55;;;;;;;5.65;1.50;;;14.30;76.60;;;;;;5074159;28;20049;-65
2022/09/18 01:37:36;;;;;;;4.70;1.67;;;14.30;75.90;;;;;;5072385;28;20032;-65
2022/09/18 01:40:07;;;;;;;7.90;1.65;;;14.30;76.00;;;;;;5073080;28;20136;-65
2022/09/18 01:42:34;;;;;;;3.90;1.57;;;14.20;76.00;;;;;;5056617;28;20017;-65
2022/09/18 01:45:05;;;;;;;4.95;1.42;;;14.20;76.00;;;;;;5057481;28;20377;-65
2022/09/18 01:47:38;;;;;;;7.47;1.77;;;14.20;76.10;;;;;;5095247;27;20070;-65
2022/09/18 01:50:06;;;;;;;6.82;1.45;;;14.20;76.10;;;;;;5117733;27;20023;-65
2022/09/18 01:52:38;;;;;;;7.78;1.60;;;14.20;76.20;;;;;;5114412;28;20364;-65
2022/09/18 01:55:11;;;;;;;7.53;1.52;;;14.20;76.20;;;;;;5115160;27;20027;-65
2022/09/18 01:57:43;;;;;;;6.18;1.48;;;14.20;76.20;;;;;;5132342;27;20036;-65
2022/09/18 02:00:11;;;;;;;6.40;1.55;;;14.20;76.20;;;;;;5131657;27;20470;-65
2022/09/18 02:02:55;;;;;;;9.93;2.00;;;14.20;76.30;;;;;;5114222;27;20034;-65
2022/09/18 02:05:33;;;;;;;;;;;14.20;76.40;;;;;;5115150;28;20058;-65
2022/09/18 02:08:07;;;;;;;6.47;1.50;;;14.20;76.30;;;;;;5115233;28;20328;-65
2022/09/18 02:10:37;;;;;;;5.05;1.15;;;14.20;76.60;;;;;;5114827;28;20016;-65
2022/09/18 02:13:08;;;;;;;4.55;1.08;;;14.10;76.70;;;;;;5130909;27;20054;-65
2022/09/18 02:15:38;;;;;;;4.55;1.08;;;14.20;76.90;;;;;;5113272;28;20066;-65
2022/09/18 02:18:17;;;;;;;5.03;1.45;;;14.20;77.20;;;;;;5130723;27;20497;-65
2022/09/18 02:20:44;;;;;;;8.73;1.63;;;14.20;77.30;;;;;;5127863;27;20123;-65
2022/09/18 02:23:11;;;;;;;9.52;1.98;;;14.10;77.40;;;;;;5114135;27;20055;-65
2022/09/18 02:25:56;;;;;;;5.30;1.50;;;14.10;77.60;;;;;;5115596;28;20020;-65
2022/09/18 02:28:24;;;;;;;7.30;1.65;;;14.10;77.70;;;;;;5115682;28;20087;-65
2022/09/18 02:30:50;;;;;;;7.38;1.35;;;14.20;78.40;;;;;;5097462;28;20051;-65
2022/09/18 02:33:24;;;;;;;9.68;1.60;;;14.10;77.80;;;;;;5129637;27;20023;-65
2022/09/18 02:36:01;;;;;;;6.47;1.88;;;14.10;77.90;;;;;;5114456;28;20427;-65
2022/09/18 02:38:36;;;;;;;4.88;1.50;;;14.10;78.00;;;;;;5131002;27;20152;-65
2022/09/18 02:41:24;;;;;;;7.97;1.65;;;14.10;78.00;;;;;;5131493;27;20027;-65
2022/09/18 02:43:55;;;;;;;5.40;1.48;;;14.10;78.10;;;;;;5130483;27;20035;-65
2022/09/18 02:46:51;;;;;;;7.13;1.60;;;14.10;78.10;;;;;;5114172;28;20035;-65
2022/09/18 02:49:56;;;;;;;6.53;1.42;;;14.00;78.30;;;;;;5129229;27;20171;-65
2022/09/18 02:52:50;;;;;;;8.07;2.03;;;14.10;78.40;;;;;;5119416;27;20054;-65
2022/09/18 02:55:30;;;;;;;4.78;1.40;;;14.00;78.40;;;;;;5131166;27;20432;-65
2022/09/18 02:58:08;;;;;;;7.05;1.60;;;14.00;78.50;;;;;;5131190;27;20104;-65
2022/09/18 03:00:35;;;;;;;4.80;1.20;;;14.00;78.50;;;;;;5133386;27;20749;-65
2022/09/18 03:03:12;;;;;;;6.10;1.48;;;14.00;78.60;;;;;;5117278;27;20028;-65
2022/09/18 03:05:44;;;;;;;6.97;1.60;;;14.00;78.70;;;;;;5112968;28;20077;-65
2022/09/18 03:08:10;;;;;;;10.23;2.17;;;14.10;78.80;;;;;;5119035;27;20410;-65
2022/09/18 03:10:36;;;;;;;7.72;1.60;;;14.00;78.70;;;;;;5116616;27;20400;-65
2022/09/18 03:13:02;;;;;;;5.30;1.17;;;14.00;78.80;;;;;;5117676;28;20118;-65
2022/09/18 03:15:28;;;;;;;6.03;1.27;;;14.00;78.80;;;;;;5105091;27;20035;-65
2022/09/18 03:17:53;;;;;;;4.68;1.30;;;14.00;79.00;;;;;;5098703;28;20110;-65
2022/09/18 03:20:19;;;;;;;10.48;2.00;;;14.00;79.00;;;;;;5110414;28;20052;-65
2022/09/18 03:22:47;;;;;;;6.60;1.50;;;14.00;79.10;;;;;;5097309;28;20113;-65
2022/09/18 03:25:13;;;;;;;5.53;1.40;;;14.00;79.30;;;;;;5093880;28;20104;-65
2022/09/18 03:27:39;;;;;;;6.78;1.30;;;14.00;79.30;;;;;;5099209;28;20043;-65
2022/09/18 03:30:06;;;;;;;6.32;1.40;;;14.00;79.30;;;;;;5114157;27;20448;-65
2022/09/18 03:32:32;;;;;;;8.13;1.50;;;14.00;79.30;;;;;;5119458;27;20019;-65
2022/09/18 03:34:58;;;;;;;11.18;1.90;;;14.00;79.40;;;;;;5108986;28;20099;-65
2022/09/18 03:37:25;;;;;;;9.63;1.63;;;14.00;79.40;;;;;;5111284;28;20059;-66
2022/09/18 03:39:52;;;;;;;3.75;1.38;;;14.00;79.40;;;;;;5114421;28;20080;-65
2022/09/18 03:42:18;;;;;;;6.05;1.40;;;14.00;79.40;;;;;;5118591;28;20023;-65
2022/09/18 03:44:43;;;;;;;7.80;1.60;;;14.00;79.40;;;;;;5109876;28;20345;-65
2022/09/18 03:47:17;;;;;;;7.85;1.55;;;14.00;79.50;;;;;;5112989;28;20180;-65
2022/09/18 03:49:43;;;;;;;5.70;1.27;;;14.00;79.50;;;;;;5110545;28;20523;-65
2022/09/18 03:52:08;;;;;;;4.88;1.02;;;14.00;79.60;;;;;;5113438;28;20035;-65
2022/09/18 03:54:42;;;;;;;6.32;1.40;;;14.00;79.60;;;;;;5112252;28;20027;-65
2022/09/18 03:57:36;;;;;;;7.70;1.50;;;14.00;79.50;;;;;;5121133;28;20088;-65
2022/09/18 04:00:18;;;;;;;;;;;14.00;79.50;;;;;;5131134;27;20027;-65
2022/09/18 04:02:48;;;;;;;5.68;1.42;;;13.90;79.40;;;;;;5113133;28;20370;-65
2022/09/18 04:05:33;;;;;;;5.47;1.23;;;13.90;79.40;;;;;;5112271;28;20074;-65
2022/09/18 04:08:31;;;;;;;6.95;1.23;;;13.90;79.40;;;;;;5094055;28;20044;-65
2022/09/18 04:11:11;;;;;;;2.93;0.97;;;13.90;79.50;;;;;;5113225;28;20127;-65
2022/09/18 04:13:37;;;;;;;5.25;1.30;;;13.90;79.50;;;;;;5112402;28;20337;-65
2022/09/18 04:16:06;;;;;;;9.07;1.70;;;13.90;79.60;;;;;;5129976;28;20027;-65
2022/09/18 04:18:32;;;;;;;6.43;1.40;;;13.90;79.60;;;;;;5115057;28;20164;-65
2022/09/18 04:21:02;;;;;;;5.85;1.33;;;13.90;79.50;;;;;;5112358;28;20020;-65
2022/09/18 04:23:28;;;;;;;6.13;1.58;;;14.00;79.60;;;;;;5130404;28;20068;-65
2022/09/18 04:25:55;;;;;;;6.30;1.08;;;13.90;79.60;;;;;;5129755;28;20042;-65
2022/09/18 04:28:24;;;;;;;4.97;1.40;;;14.00;79.60;;;;;;5115857;27;20023;-65
2022/09/18 04:30:49;;;;;;;7.18;1.30;;;13.90;79.60;;;;;;5096475;28;20332;-65
2022/09/18 04:33:15;;;;;;;6.15;1.08;;;13.90;79.70;;;;;;5112722;28;20030;-65
2022/09/18 04:35:41;;;;;;;7.88;1.70;;;13.90;79.70;;;;;;5114282;28;20035;-65
2022/09/18 04:38:08;;;;;;;5.60;1.27;;;13.90;79.80;;;;;;5112424;28;20011;-65
2022/09/18 04:40:33;;;;;;;9.00;1.63;;;13.90;79.80;;;;;;5131471;27;20023;-65
2022/09/18 04:42:59;;;;;;;4.20;1.17;;;14.00;79.90;;;;;;5114618;27;20020;-65
2022/09/18 04:45:26;;;;;;;8.50;1.55;;;14.00;79.90;;;;;;5098999;28;20088;-65
2022/09/18 04:47:52;;;;;;;4.03;1.33;;;14.00;79.90;;;;;;5116808;28;20035;-65
2022/09/18 04:50:19;;;;;;;5.63;1.35;;;14.00;80.00;;;;;;5115404;28;20115;-70
2022/09/18 04:53:05;;;;;;;3.88;1.05;;;13.90;80.00;;;;;;5115741;28;20378;-65
2022/09/18 04:55:32;;;;;;;5.88;1.27;;;13.90;80.10;;;;;;5116821;28;20360;-66
2022/09/18 04:57:58;;;;;;;6.10;1.02;;;13.90;80.20;;;;;;5122262;27;20015;-66
2022/09/18 05:00:24;;;;;;;4.72;1.20;;;13.90;80.20;;;;;;5123421;27;20028;-66
2022/09/18 05:02:49;;;;;;;3.75;1.10;;;13.90;80.30;;;;;;5133413;27;20364;-66
2022/09/18 05:05:19;;;;;;;5.05;1.38;;;13.90;80.30;;;;;;5133145;27;20452;-66
2022/09/18 05:07:46;;;;;;;3.97;1.10;;;13.90;80.30;;;;;;5131434;27;20030;-67
2022/09/18 05:10:14;;;;;;;5.47;1.00;;;13.90;80.20;;;;;;5115009;28;20027;-67
2022/09/18 05:12:40;;;;;;;5.63;1.20;;;13.90;80.20;;;;;;5119541;27;20466;-66
2022/09/18 05:15:07;;;;;;;5.15;1.23;;;13.90;80.30;;;;;;5122457;27;20066;-66
2022/09/18 05:17:33;;;;;;;4.30;1.30;;;13.90;80.30;;;;;;5116004;28;20028;-66
2022/09/18 05:20:01;;;;;;;4.07;0.88;;;13.90;80.20;;;;;;5115091;28;20026;-67
2022/09/18 05:22:35;;;;;;;4.95;1.30;;;13.90;80.20;;;;;;5115800;28;20027;-66
2022/09/18 05:25:03;;;;;;;7.03;1.60;;;13.90;80.30;;;;;;5133492;27;20579;-66
2022/09/18 05:27:29;;;;;;;5.22;1.30;;;13.90;80.40;;;;;;5131831;27;20106;-66
2022/09/18 05:29:55;;;;;;;4.20;1.10;;;13.90;80.40;;;;;;5132850;27;20092;-66
2022/09/18 05:32:27;;;;;;;6.53;1.40;;;13.90;80.40;;;;;;5115286;28;20032;-67
2022/09/18 05:34:52;;;;;;;3.70;1.10;;;13.80;80.40;;;;;;5116890;28;20076;-67
2022/09/18 05:37:18;;;;;;;6.28;1.73;;;13.80;81.00;;;;;;5132751;27;20024;-67
2022/09/18 05:39:47;;;;;;;4.55;1.50;;;13.90;80.50;;;;;;5115776;28;20024;-67
2022/09/18 05:42:13;;;;;;;5.63;1.10;;;13.90;80.40;;;;;;5113972;27;20501;-67
2022/09/18 05:44:39;;;;;;;2.72;0.82;;;13.90;80.30;;;;;;5114792;28;20028;-66
2022/09/18 05:47:12;;;;;;;6.07;1.17;;;13.90;80.30;;;;;;5115725;28;20366;-67
2022/09/18 05:49:38;;;;;;;5.28;1.25;;;13.90;80.30;;;;;;5098626;28;20096;-66
2022/09/18 05:52:05;;;;;;;3.47;1.10;;;13.90;80.40;;;;;;5114385;28;20028;-68
2022/09/18 05:54:35;;;;;;;5.13;1.13;;;13.90;80.40;;;;;;5097063;28;20065;-67
2022/09/18 05:57:00;;;;;;;3.15;0.95;;;13.80;80.30;;;;;;5115448;28;20160;-67
2022/09/18 05:59:26;;;;;;;3.88;1.05;;;13.90;80.30;;;;;;5125596;27;20126;-67
2022/09/18 06:01:54;;;;;;;3.28;1.05;;;13.90;80.90;;;;;;5135369;27;20023;-66
2022/09/18 06:04:25;;;;;;;3.90;0.98;;;13.90;80.30;;;;;;5100004;27;20440;-67
2022/09/18 06:06:55;;;;;;;4.10;1.00;;;13.90;80.30;;;;;;5116490;28;20164;-67
2022/09/18 06:09:21;;;;;;;4.72;1.10;;;13.90;80.30;;;;;;5131808;27;20458;-67
2022/09/18 06:11:47;;;;;;;5.75;1.08;;;13.90;80.20;;;;;;5115219;28;20114;-67
2022/09/18 06:14:12;;;;;;;3.67;0.93;;;13.90;80.20;;;;;;5120630;27;20455;-67
2022/09/18 06:16:39;;;;;;;4.13;0.88;;;13.90;80.30;;;;;;5099043;28;20031;-67
2022/09/18 06:19:07;;;;;;;4.90;1.42;;;14.00;80.30;;;;;;5130293;27;20024;-67
2022/09/18 06:21:32;;;;;;;4.97;0.93;;;13.90;80.30;;;;;;5131677;27;20045;-68
2022/09/18 06:23:58;;;;;;;4.20;0.80;;;14.00;80.40;;;;;;5113454;28;20022;-66
2022/09/18 06:26:44;;;;;;;5.53;0.90;;;14.00;80.40;;;;;;5114024;28;20036;-67
2022/09/18 06:29:09;;;;;;;3.70;1.10;;;14.00;80.40;;;;;;5124887;27;20034;-66
2022/09/18 06:31:48;;;;;;;7.40;1.27;;;14.00;80.40;;;;;;5114029;28;20122;-66
2022/09/18 06:34:20;;;;;;;4.07;0.98;;;14.00;80.40;;;;;;5114728;28;20081;-67
2022/09/18 06:36:46;;;;;;;3.20;0.90;;;14.00;80.40;;;;;;5114258;28;20047;-67
2022/09/18 06:39:21;;;;;;;2.78;0.90;;;14.00;80.30;;;;;;5114525;28;20107;-67
2022/09/18 06:41:50;;;;;;;4.43;1.00;;;14.00;80.30;;;;;;5097073;28;20110;-67
2022/09/18 06:44:20;;;;;;;5.45;1.00;;;14.00;80.20;;;;;;5129763;27;20024;-68
2022/09/18 06:46:52;;;;;;;5.50;1.27;;;14.00;80.20;;;;;;5114140;28;20024;-67
2022/09/18 06:49:28;;;;;;;7.18;1.50;;;13.90;80.20;;;;;;5098044;28;20114;-65
2022/09/18 06:51:54;;;;;;;3.58;1.33;;;14.00;80.40;;;;;;5113527;27;20099;-62
2022/09/18 06:54:20;;;;;;;5.20;1.10;;;14.00;80.40;;;;;;5113754;27;20104;-64
2022/09/18 06:56:48;;;;;;;4.32;1.08;;;14.00;80.40;;;;;;5099911;28;20439;-65
2022/09/18 06:59:16;;;;;;;3.20;0.85;;;14.00;80.30;;;;;;5114950;27;20024;-64
2022/09/18 07:01:41;;;;;;;3.80;0.80;;;14.10;80.30;;;;;;5096786;28;20039;-64
2022/09/18 07:04:34;;;;;;;4.32;1.23;;;14.10;80.20;;;;;;5106185;28;20036;-64
2022/09/18 07:06:59;;;;;;;3.42;0.90;;;14.10;80.20;;;;;;5113683;28;20069;-64
2022/09/18 07:09:27;;;;;;;4.78;1.30;;;14.10;80.10;;;;;;5113945;28;20056;-65
2022/09/18 07:11:52;;;;;;;5.53;1.15;;;14.10;80.20;;;;;;5115090;28;20472;-64
2022/09/18 07:14:22;;;;;;;2.25;0.98;;;14.10;80.10;;;;;;5109639;28;20054;-65
2022/09/18 07:16:52;;;;;;;4.70;0.98;;;14.10;80.10;;;;;;5112674;27;20023;-65
2022/09/18 07:19:18;;;;;;;4.43;1.13;;;14.10;80.00;;;;;;5096719;28;20020;-64
2022/09/18 07:21:44;;;;;;;5.15;1.10;;;14.10;80.00;;;;;;5119478;27;20348;-65
2022/09/18 07:24:09;;;;;;;6.28;1.67;;;14.10;80.00;;;;;;5118458;27;20026;-64
2022/09/18 07:26:36;;;;;;;5.60;1.10;;;14.10;80.00;;;;;;5136352;27;20097;-64
2022/09/18 07:29:03;;;;;;;4.40;1.10;;;14.10;80.00;;;;;;5095886;28;20534;-64
2022/09/18 07:31:34;;;;;;;3.33;1.00;;;14.10;80.00;;;;;;5113221;28;20111;-65
2022/09/18 07:34:03;;;;;;;3.38;0.98;;;14.10;80.00;;;;;;5097427;28;20031;-65
2022/09/18 07:36:29;;;;;;;6.20;1.40;;;14.10;80.00;;;;;;5113166;28;20444;-65
2022/09/18 07:38:54;;;;;;;4.43;1.00;;;14.10;80.70;;;;;;5113728;28;20024;-65
2022/09/18 07:41:23;;;;;;;5.47;1.23;;;14.10;80.10;;;;;;5129182;28;20034;-65
2022/09/18 07:43:50;;;;;;;4.65;1.00;;;14.10;80.10;;;;;;5116728;28;20363;-65
2022/09/18 07:46:16;;;;;;;4.53;1.20;;;14.20;80.70;;;;;;5128315;27;20047;-65
2022/09/18 07:48:44;;;;;;;6.90;1.17;;;14.20;80.10;;;;;;5112880;28;20027;-64
2022/09/18 07:51:28;;;;;;;3.75;1.05;;;14.20;80.20;;;;;;5097136;28;20023;-64
2022/09/18 07:53:57;;;;;;;5.00;1.00;;;14.20;80.80;;;;;;5113189;28;20080;-65
2022/09/18 07:56:36;;;;;;;5.20;1.23;;;14.10;80.20;;;;;;5128833;28;20084;-64
2022/09/18 07:59:03;;;;;;;4.28;1.25;;;14.10;80.20;;;;;;5112178;28;20371;-64
2022/09/18 08:01:33;;;;;;;5.97;1.40;;;14.10;80.30;;;;;;5129437;28;20020;-64
2022/09/18 08:04:01;;;;;;;2.58;1.05;;;14.20;80.40;;;;;;5113458;28;20015;-64
2022/09/18 08:07:02;;;;;;;6.90;1.33;;;14.10;80.40;;;;;;5129702;27;20078;-64
2022/09/18 08:09:50;;;;;;;3.15;1.10;;;14.10;80.40;;;;;;5113458;28;20051;-65
2022/09/18 08:12:35;;;;;;;5.07;1.10;;;14.20;80.40;;;;;;5099528;28;20108;-64
2022/09/18 08:15:23;;;;;;;4.18;1.20;;;14.20;80.50;;;;;;5119404;27;20019;-64
2022/09/18 08:18:10;;;;;;;5.32;1.40;;;14.30;80.60;;;;;;5114235;28;20089;-64
2022/09/18 08:20:55;;;;;;;4.72;1.20;;;14.20;80.40;;;;;;5117156;28;20367;-64
2022/09/18 08:23:29;;;;;;;5.35;1.05;;;14.20;80.50;;;;;;5110085;28;20015;-64
2022/09/18 08:26:02;;;;;;;6.47;1.40;;;14.30;80.60;;;;;;5101156;28;20019;-64
2022/09/18 08:28:28;;;;;;;;;;;14.20;80.60;;;;;;5132636;27;20043;-64
2022/09/18 08:30:57;;;;;;;4.30;1.42;;;14.20;80.50;;;;;;5116784;28;19943;-64
2022/09/18 08:33:23;;;;;;;2.67;1.00;;;14.20;80.40;;;;;;5099596;28;20015;-64
2022/09/18 08:35:48;;;;;;;5.60;1.52;;;14.30;80.60;;;;;;5118500;27;20024;-64
2022/09/18 08:38:22;;;;;;;4.35;1.10;;;14.30;80.70;;;;;;5116435;28;20020;-64
2022/09/18 08:41:56;;;;;;;2.35;1.00;;;14.30;80.70;;;;;;5115016;28;20020;-65
2022/09/18 08:44:28;;;;;;;5.25;1.30;;;14.30;80.70;;;;;;5038247;28;20048;-64
2022/09/18 08:46:59;;;;;;;5.30;1.13;;;14.30;80.70;;;;;;5032727;28;20437;-64
2022/09/18 08:49:30;;;;;;;2.85;1.20;;;14.40;80.70;;;;;;5046859;28;20381;-66
2022/09/18 08:52:05;;;;;;;3.40;0.88;;;14.40;80.60;;;;;;5037604;28;20029;-64
2022/09/18 08:54:44;;;;;;;2.83;1.00;;;14.50;80.70;;;;;;5043249;28;20485;-65
2022/09/18 08:57:53;;;;;;;2.38;1.05;;;14.50;80.70;;;;;;5054552;28;20051;-64
2022/09/18 09:00:35;;;;;;;4.95;1.00;;;14.50;80.60;;;;;;5042755;28;20347;-64
2022/09/18 09:03:36;;;;;;;5.65;1.40;;;14.50;80.80;;;;;;5036119;28;20037;-64
2022/09/18 09:06:25;;;;;;;2.85;1.17;;;14.40;80.90;;;;;;5033899;28;20029;-64
2022/09/18 09:09:09;;;;;;;4.60;0.90;;;14.40;81.00;;;;;;5052055;28;20434;-64
2022/09/18 09:11:51;;;;;;;4.18;1.10;;;14.40;81.10;;;;;;5020031;28;20504;-65
2022/09/18 09:14:30;;;;;;;3.95;1.27;;;14.50;81.20;;;;;;5052630;28;20051;-66
2022/09/18 09:17:05;;;;;;;3.47;1.15;;;14.50;81.20;;;;;;5133261;27;20028;-65
2022/09/18 09:19:31;;;;;;;5.63;1.55;;;14.50;81.30;;;;;;5117509;27;20015;-65
2022/09/18 09:22:17;;;;;;;4.18;1.27;;;14.50;81.30;;;;;;5132101;27;20024;-66
2022/09/18 09:24:54;;;;;;;5.47;1.20;;;14.60;81.40;;;;;;5115519;27;20059;-65
2022/09/18 09:27:48;;;;;;;4.15;1.05;;;14.60;81.30;;;;;;5116486;28;20095;-65
2022/09/18 09:30:33;;;;;;;4.35;1.20;;;14.70;81.30;;;;;;5110696;27;20038;-68
2022/09/18 09:33:24;;;;;;;2.20;1.13;;;14.70;81.20;;;;;;5116413;27;20042;-66
2022/09/18 09:36:12;;;;;;;4.43;1.23;;;14.80;81.20;;;;;;5115661;28;20032;-65
2022/09/18 09:39:12;;;;;;;3.35;1.17;;;14.80;81.20;;;;;;5104237;28;20363;-65
2022/09/18 09:41:41;;;;;;;5.43;1.35;;;14.90;81.20;;;;;;5144368;27;20027;-65
2022/09/18 09:44:23;;;;;;;3.08;1.08;;;14.90;81.10;;;;;;5132449;27;20371;-65
2022/09/18 09:47:18;;;;;;;4.38;1.15;;;14.90;81.20;;;;;;5114318;28;20035;-65
2022/09/18 09:49:48;;;;;;;4.97;1.40;;;14.90;81.30;;;;;;5111685;27;20023;-65
2022/09/18 09:52:22;;;;;;;2.33;0.82;;;14.90;81.30;;;;;;5130069;27;20103;-65
2022/09/18 09:54:58;;;;;;;4.88;1.20;;;14.90;81.30;;;;;;5130753;27;20028;-65
2022/09/18 09:57:30;;;;;;;3.63;1.00;;;15.00;81.20;;;;;;5101419;28;20019;-65
2022/09/18 10:00:13;;;;;;;4.63;1.20;;;15.00;81.20;;;;;;5115163;28;20298;-65
2022/09/18 10:03:05;;;;;;;3.53;1.23;;;15.10;81.20;;;;;;5114950;28;20127;-65
2022/09/18 10:05:42;;;;;;;4.53;1.20;;;15.20;81.10;;;;;;5115794;27;20114;-64
2022/09/18 10:08:20;;;;;;;3.92;1.45;;;15.30;81.00;;;;;;5115142;27;20024;-64
2022/09/18 10:10:53;;;;;;;6.28;1.40;;;15.30;81.50;;;;;;5131918;27;20032;-65
2022/09/18 10:13:31;;;;;;;4.28;0.88;;;15.30;80.80;;;;;;5115001;27;20053;-65
2022/09/18 10:16:09;;;;;;;4.22;1.10;;;15.30;80.80;;;;;;5119554;27;20404;-66
2022/09/18 10:18:42;;;;;;;3.50;1.10;;;15.30;80.90;;;;;;5130012;27;20118;-65
2022/09/18 10:21:15;;;;;;;3.78;1.13;;;15.30;81.00;;;;;;5101149;28;20355;-64
2022/09/18 10:23:43;;;;;;;3.33;1.02;;;15.30;81.10;;;;;;5112065;27;20024;-64
2022/09/18 10:26:20;;;;;;;3.67;1.20;;;15.30;81.00;;;;;;5131052;27;20023;-64
2022/09/18 10:28:46;;;;;;;3.80;1.33;;;15.30;81.10;;;;;;5095930;28;20032;-64
2022/09/18 10:31:13;;;;;;;2.90;1.10;;;15.40;81.00;;;;;;5096934;28;20119;-64
2022/09/18 10:33:48;;;;;;;3.85;1.05;;;15.40;80.70;;;;;;5098762;28;20097;-64
2022/09/18 10:36:37;;;;;;;3.03;1.23;;;15.40;80.70;;;;;;5131438;27;20053;-64
2022/09/18 10:39:36;;;;;;;3.88;1.40;;;15.40;80.70;;;;;;5115431;27;20047;-64
2022/09/18 10:42:15;;;;;;;6.03;1.92;;;15.30;80.60;;;;;;5106510;28;20596;-64
2022/09/18 10:44:47;;;;;;;5.10;1.92;;;15.30;80.90;;;;;;5114161;28;20027;-64
2022/09/18 10:47:27;;;;;;;5.00;1.60;;;15.30;80.90;;;;;;5113850;27;20027;-64
2022/09/18 10:49:56;;;;;;;4.88;1.38;;;15.30;80.80;;;;;;5096752;27;20467;-64
2022/09/18 10:52:43;;;;;;;3.75;1.05;;;15.30;80.70;;;;;;5113893;27;20034;-64
2022/09/18 10:55:24;;;;;;;5.85;1.45;;;15.40;80.80;;;;;;5098605;28;20062;-64
2022/09/18 10:58:12;;;;;;;6.70;1.20;;;15.40;80.70;;;;;;5131746;27;20419;-64
2022/09/18 11:00:45;;;;;;;6.38;1.58;;;15.40;80.70;;;;;;5131274;27;20028;-64
2022/09/18 11:03:19;;;;;;;2.58;1.35;;;15.40;80.70;;;;;;5130370;27;20337;-64
2022/09/18 11:05:58;;;;;;;5.50;1.02;;;15.40;80.80;;;;;;5131435;27;20032;-64
2022/09/18 11:08:29;;;;;;;3.05;1.00;;;15.40;80.90;;;;;;5131765;27;20034;-64
2022/09/18 11:11:05;;;;;;;3.50;1.27;;;15.40;80.90;;;;;;5131267;27;20164;-64
2022/09/18 11:13:41;;;;;;;3.88;1.10;;;15.40;80.80;;;;;;5130850;27;20498;-64
2022/09/18 11:16:07;;;;;;;2.72;1.00;;;15.40;80.70;;;;;;5131175;27;20034;-64
2022/09/18 11:18:34;;;;;;;3.80;1.10;;;15.40;80.50;;;;;;5131404;27;20040;-64
2022/09/18 11:21:05;;;;;;;4.50;1.27;;;15.40;80.40;;;;;;5120567;27;20355;-64
2022/09/18 11:23:33;;;;;;;5.57;1.45;;;15.40;80.50;;;;;;5110251;27;20026;-64
2022/09/18 11:26:18;;;;;;;4.97;1.30;;;15.40;80.50;;;;;;5110017;28;20047;-64
2022/09/18 11:29:02;;;;;;;4.85;1.42;;;15.30;80.60;;;;;;5114412;28;20034;-64
2022/09/18 11:31:40;;;;;;;4.57;1.40;;;15.30;80.70;;;;;;5130977;28;20023;-64
2022/09/18 11:34:18;;;;;;;4.85;1.33;;;15.30;80.80;;;;;;5131215;28;20042;-64
2022/09/18 11:36:48;;;;;;;4.75;1.30;;;15.30;80.90;;;;;;5130533;28;20089;-64
2022/09/18 11:39:21;;;;;;;3.50;1.10;;;15.30;80.90;;;;;;5131164;28;20028;-64
2022/09/18 11:41:48;;;;;;;4.45;1.30;;;15.30;80.80;;;;;;5131498;28;20038;-64
2022/09/18 11:44:21;;;;;;;5.40;1.58;;;15.30;80.70;;;;;;5114054;28;20114;-64
2022/09/18 11:47:07;;;;;;;4.50;1.38;;;15.30;80.70;;;;;;5130248;27;20424;-64
2022/09/18 11:49:38;;;;;;;4.32;1.15;;;15.30;80.50;;;;;;5116310;28;20451;-64
2022/09/18 11:52:16;;;;;;;2.75;0.98;;;15.30;80.60;;;;;;5135310;27;20092;-64
2022/09/18 11:55:08;;;;;;;2.63;0.90;;;15.20;80.60;;;;;;5102403;28;20035;-65
2022/09/18 11:57:57;;;;;;;3.40;1.00;;;15.20;80.70;;;;;;5123499;27;20574;-65
2022/09/18 12:00:27;;;;;;;6.00;1.25;;;15.10;80.60;;;;;;5134808;27;20375;-65
2022/09/18 12:03:27;;;;;;;6.53;1.27;;;15.10;80.70;;;;;;5134987;27;20462;-65
2022/09/18 12:05:57;;;;;;;4.57;1.23;;;15.10;80.70;;;;;;5135229;27;20027;-65
2022/09/18 12:08:35;;;;;;;6.32;1.25;;;15.10;80.80;;;;;;5118651;28;20077;-65
2022/09/18 12:11:43;;;;;;;4.35;0.95;;;15.10;80.80;;;;;;5117761;28;20031;-65
2022/09/18 12:14:32;;;;;;;6.28;1.38;;;15.10;80.90;;;;;;5138841;27;20067;-64
2022/09/18 12:17:37;;;;;;;3.03;1.05;;;15.00;80.70;;;;;;5134967;27;20471;-64
2022/09/18 12:20:10;;;;;;;4.28;1.00;;;15.00;80.80;;;;;;5117131;28;20027;-65
2022/09/18 12:22:44;;;;;;;4.95;1.45;;;15.00;80.80;;;;;;5116632;27;20399;-68
2022/09/18 12:25:15;;;;;;;5.50;1.63;;;15.00;80.90;;;;;;5117385;28;20028;-65
2022/09/18 12:28:33;;;;;;;5.47;1.30;;;15.10;81.00;;;;;;5096002;28;20101;-65
2022/09/18 12:31:12;;;;;;;5.10;1.00;;;15.00;81.00;;;;;;5096064;28;20024;-66
2022/09/18 12:33:37;;;;;;;4.80;1.13;;;15.00;81.00;;;;;;5095087;28;20290;-65
2022/09/18 12:36:47;;;;;;;2.63;1.02;;;15.00;81.00;;;;;;5095879;28;20039;-65
2022/09/18 12:39:34;;;;;;;3.40;1.42;;;15.10;81.00;;;;;;5035488;28;20050;-65
2022/09/18 12:42:03;;;;;;;4.22;1.15;;;15.00;80.90;;;;;;5035464;28;20033;-65
2022/09/18 12:45:26;;;;;;;4.30;1.10;;;15.00;80.90;;;;;;5035312;28;20042;-65
2022/09/18 12:48:02;;;;;;;6.00;1.35;;;15.10;81.00;;;;;;4995630;28;20086;-64
2022/09/18 12:50:39;;;;;;;6.05;1.70;;;15.00;81.00;;;;;;4995288;28;20038;-65
2022/09/18 12:53:24;;;;;;;3.90;1.30;;;15.00;81.10;;;;;;4995660;28;20399;-64
2022/09/18 12:56:07;;;;;;;6.35;1.45;;;15.00;81.10;;;;;;4993627;28;20046;-65
2022/09/18 12:58:44;;;;;;;3.38;1.10;;;15.10;81.20;;;;;;4978416;28;20447;-65
2022/09/18 13:01:26;;;;;;;4.40;1.65;;;15.10;81.20;;;;;;4994332;28;20065;-65
2022/09/18 13:03:54;;;;;;;;;;;15.10;81.10;;;;;;4983575;28;20451;-64
2022/09/18 13:06:35;;;;;;;3.58;1.10;;;15.10;80.90;;;;;;5011743;28;19921;-64
2022/09/18 13:09:11;;;;;;;4.47;1.30;;;15.10;81.00;;;;;;5025661;28;20039;-65
2022/09/18 13:11:44;;;;;;;4.43;1.38;;;15.10;81.00;;;;;;5095520;28;20034;-64
2022/09/18 13:14:18;;;;;;;6.90;1.48;;;15.10;81.10;;;;;;5095522;28;20083;-64
2022/09/18 13:16:58;;;;;;;8.32;1.38;;;15.10;81.00;;;;;;5092170;28;20028;-64
2022/09/18 13:19:46;;;;;;;5.47;1.45;;;15.20;81.10;;;;;;5092432;28;20039;-64
2022/09/18 13:22:16;;;;;;;4.55;1.60;;;15.10;81.10;;;;;;5117027;27;20110;-64
2022/09/18 13:24:45;;;;;;;3.58;1.20;;;15.10;81.10;;;;;;5118691;27;20110;-64
2022/09/18 13:27:14;;;;;;;4.50;1.45;;;15.10;81.20;;;;;;5115927;27;20382;-64